createdAt,value
2022-10-31T00:00:14.434Z,23.38
2022-10-31T00:02:41.424Z,25.27
2022-10-31T00:05:13.356Z,27.45
2022-10-31T00:07:42.827Z,25.85
2022-10-31T00:10:11.278Z,23.02
2022-10-31T00:12:38.347Z,29.88
2022-10-31T00:15:05.833Z,25.42
2022-10-31T00:17:36.013Z,25.17
2022-10-31T00:20:03.452Z,25.75
2022-10-31T00:22:30.249Z,20.75
2022-10-31T00:24:58.285Z,24.25
2022-10-31T00:28:14.990Z,27.00
2022-10-31T00:31:21.630Z,23.60
2022-10-31T00:33:48.534Z,26.75
2022-10-31T00:36:39.146Z,30.13
2022-10-31T00:39:06.078Z,20.10
2022-10-31T00:41:33.705Z,21.48
2022-10-31T00:44:03.107Z,23.90
2022-10-31T00:46:42.389Z,27.63
2022-10-31T00:49:09.687Z,21.30
2022-10-31T00:51:38.762Z,26.27
2022-10-31T00:58:20.719Z,23.73
2022-10-31T01:01:23.354Z,18.25
2022-10-31T01:03:51.346Z,22.02
2022-10-31T01:06:18.388Z,25.52
2022-10-31T01:08:50.294Z,21.95
2022-10-31T01:11:22.067Z,22.33
2022-10-31T01:13:52.579Z,27.55
2022-10-31T01:16:22.339Z,24.83
2022-10-31T01:18:52.928Z,27.33
2022-10-31T01:21:28.883Z,27.55
2022-10-31T01:23:59.978Z,23.23
2022-10-31T01:26:32.246Z,20.77
2022-10-31T01:29:01.975Z,20.63
2022-10-31T01:31:35.940Z,24.88
2022-10-31T01:34:03.585Z,21.75
2022-10-31T01:36:34.968Z,18.95
2022-10-31T01:39:10.747Z,23.25
2022-10-31T01:41:41.326Z,24.73
2022-10-31T01:44:17.481Z,21.42
2022-10-31T01:46:50.542Z,25.95
2022-10-31T01:49:33.108Z,22.67
2022-10-31T01:52:07.338Z,19.55
2022-10-31T01:54:40.326Z,33.60
2022-10-31T01:57:09.698Z,29.85
2022-10-31T01:59:41.451Z,22.88
2022-10-31T02:02:09.216Z,24.33
2022-10-31T02:04:37.953Z,24.50
2022-10-31T02:07:44.689Z,24.02
2022-10-31T02:10:13.209Z,27.20
2022-10-31T02:12:42.160Z,25.73
2022-10-31T02:15:10.337Z,31.95
2022-10-31T02:17:38.455Z,21.50
2022-10-31T02:20:20.625Z,21.52
2022-10-31T02:23:10.326Z,32.97
2022-10-31T02:26:04.750Z,23.95
2022-10-31T02:28:44.088Z,25.55
2022-10-31T02:34:50.001Z,32.22
2022-10-31T02:38:02.095Z,27.27
2022-10-31T02:40:43.098Z,26.50
2022-10-31T02:43:27.006Z,33.80
2022-10-31T02:46:24.499Z,31.73
2022-10-31T02:49:22.028Z,24.60
2022-10-31T02:51:59.313Z,35.03
2022-10-31T02:54:36.045Z,22.70
2022-10-31T02:57:10.904Z,24.52
2022-10-31T03:03:46.631Z,24.65
2022-10-31T03:06:54.588Z,22.98
2022-10-31T03:09:53.239Z,21.90
2022-10-31T03:12:46.149Z,24.80
2022-10-31T03:15:32.037Z,28.20
2022-10-31T03:18:11.548Z,29.27
2022-10-31T03:20:43.159Z,22.15
2022-10-31T03:23:18.663Z,23.75
2022-10-31T03:25:52.247Z,24.38
2022-10-31T03:28:25.799Z,20.08
2022-10-31T03:30:54.650Z,19.88
2022-10-31T03:33:29.015Z,25.63
2022-10-31T03:36:01.488Z,23.10
2022-10-31T03:38:30.547Z,19.42
2022-10-31T03:41:01.725Z,22.70
2022-10-31T03:43:36.065Z,22.85
2022-10-31T03:46:03.278Z,20.02
2022-10-31T03:48:31.840Z,26.70
2022-10-31T03:51:32.976Z,24.13
2022-10-31T03:54:16.690Z,19.13
2022-10-31T03:57:05.693Z,25.45
2022-10-31T03:59:51.781Z,25.60
2022-10-31T04:02:23.343Z,23.73
2022-10-31T04:04:52.076Z,22.35
2022-10-31T04:07:21.871Z,19.35
2022-10-31T04:09:51.428Z,20.40
2022-10-31T04:12:18.852Z,23.67
2022-10-31T04:14:49.827Z,24.83
2022-10-31T04:17:22.715Z,22.25
2022-10-31T04:19:49.992Z,18.77
2022-10-31T04:22:17.521Z,19.90
2022-10-31T04:24:45.269Z,22.15
2022-10-31T04:27:12.843Z,24.85
2022-10-31T04:29:43.411Z,21.92
2022-10-31T04:32:12.777Z,21.42
2022-10-31T04:34:40.803Z,23.33
2022-10-31T04:37:08.623Z,26.38
2022-10-31T04:39:35.660Z,25.70
2022-10-31T04:42:03.487Z,23.70
2022-10-31T04:44:30.538Z,25.55
2022-10-31T04:46:59.643Z,21.88
2022-10-31T04:49:26.515Z,21.75
2022-10-31T04:51:53.812Z,22.02
2022-10-31T04:54:20.700Z,20.63
2022-10-31T04:56:50.430Z,25.60
2022-10-31T04:59:17.581Z,29.20
2022-10-31T05:01:44.950Z,25.02
2022-10-31T05:04:12.485Z,21.77
2022-10-31T05:06:45.742Z,29.45
2022-10-31T05:09:13.511Z,31.63
2022-10-31T05:11:40.460Z,19.98
2022-10-31T05:14:07.807Z,28.20
2022-10-31T05:16:34.627Z,21.50
2022-10-31T05:19:03.343Z,22.02
2022-10-31T05:21:30.542Z,23.40
2022-10-31T05:23:57.711Z,18.50
2022-10-31T05:26:26.910Z,23.92
2022-10-31T05:28:55.306Z,27.05
2022-10-31T05:31:28.148Z,28.15
2022-10-31T05:33:55.262Z,22.60
2022-10-31T05:36:24.541Z,31.50
2022-10-31T05:38:56.759Z,25.30
2022-10-31T05:41:26.449Z,27.70
2022-10-31T05:43:54.565Z,27.20
2022-10-31T05:46:21.431Z,22.58
2022-10-31T05:48:49.014Z,23.35
2022-10-31T05:51:16.253Z,20.77
2022-10-31T05:53:44.806Z,28.45
2022-10-31T05:56:11.618Z,19.75
2022-10-31T05:58:38.574Z,23.33
2022-10-31T06:01:07.173Z,22.73
2022-10-31T06:03:34.115Z,25.08
2022-10-31T06:06:02.727Z,25.60
2022-10-31T06:08:32.664Z,23.20
2022-10-31T06:11:02.106Z,18.33
2022-10-31T06:13:29.429Z,24.30
2022-10-31T06:15:56.435Z,19.88
2022-10-31T06:18:23.883Z,28.15
2022-10-31T06:20:51.208Z,26.23
2022-10-31T06:23:18.375Z,21.70
2022-10-31T06:25:52.195Z,17.48
2022-10-31T06:28:20.615Z,21.23
2022-10-31T06:30:47.853Z,18.85
2022-10-31T06:33:15.296Z,15.98
2022-10-31T06:35:47.736Z,23.58
2022-10-31T06:38:20.153Z,22.05
2022-10-31T06:40:49.073Z,17.73
2022-10-31T06:43:16.498Z,21.55
2022-10-31T06:45:46.387Z,18.70
2022-10-31T06:48:17.922Z,21.33
2022-10-31T06:50:45.652Z,19.42
2022-10-31T06:53:13.373Z,23.45
2022-10-31T06:59:27.414Z,22.73
2022-10-31T07:01:55.968Z,15.18
2022-10-31T07:04:25.060Z,18.88
2022-10-31T07:06:56.238Z,21.30
2022-10-31T07:09:23.413Z,17.33
2022-10-31T07:11:53.655Z,15.38
2022-10-31T07:14:21.709Z,11.43
2022-10-31T07:16:55.012Z,13.20
2022-10-31T07:19:23.683Z,23.45
2022-10-31T07:21:50.548Z,18.90
2022-10-31T07:24:25.970Z,22.23
2022-10-31T07:26:52.826Z,17.50
2022-10-31T07:29:20.091Z,18.10
2022-10-31T07:31:48.212Z,18.97
2022-10-31T07:34:15.532Z,18.40
2022-10-31T07:36:46.871Z,15.53
2022-10-31T07:39:22.541Z,16.67
2022-10-31T07:41:49.588Z,14.03
2022-10-31T07:44:20.808Z,18.40
2022-10-31T07:46:47.987Z,12.47
2022-10-31T07:49:17.421Z,14.20
2022-10-31T07:51:46.544Z,21.83
2022-10-31T07:54:13.629Z,13.80
2022-10-31T07:56:44.016Z,17.30
2022-10-31T07:59:11.635Z,16.00
2022-10-31T08:01:38.433Z,11.60
2022-10-31T08:04:06.866Z,15.33
2022-10-31T08:06:44.502Z,15.83
2022-10-31T08:09:13.043Z,19.17
2022-10-31T08:11:39.852Z,13.67
2022-10-31T08:14:09.708Z,13.17
2022-10-31T08:16:42.614Z,13.27
2022-10-31T08:19:09.892Z,14.30
2022-10-31T08:21:37.076Z,10.37
2022-10-31T08:24:04.447Z,10.40
2022-10-31T08:26:32.335Z,10.60
2022-10-31T08:29:03.181Z,12.13
2022-10-31T08:31:34.386Z,13.53
2022-10-31T08:34:05.847Z,13.00
2022-10-31T08:36:33.301Z,11.53
2022-10-31T08:39:02.102Z,13.40
2022-10-31T08:41:30.630Z,11.80
2022-10-31T08:44:00.949Z,9.80
2022-10-31T08:46:28.953Z,9.97
2022-10-31T08:49:00.396Z,10.50
2022-10-31T08:51:30.707Z,9.33
2022-10-31T08:54:09.030Z,11.70
2022-10-31T08:56:41.246Z,10.67
2022-10-31T08:59:12.023Z,9.70
2022-10-31T09:01:42.739Z,8.53
2022-10-31T09:04:13.165Z,11.40
2022-10-31T09:07:15.214Z,8.80
2022-10-31T09:09:36.205Z,13.23
2022-10-31T09:12:06.896Z,8.50
2022-10-31T09:14:34.558Z,7.60
2022-10-31T09:17:03.350Z,6.90
2022-10-31T09:19:33.239Z,10.60
2022-10-31T09:22:09.728Z,7.90
2022-10-31T09:24:41.096Z,11.50
2022-10-31T09:27:10.885Z,7.17
2022-10-31T09:29:39.804Z,8.90
2022-10-31T09:32:09.174Z,10.00
2022-10-31T09:34:40.297Z,6.20
2022-10-31T09:37:12.386Z,6.57
2022-10-31T09:39:43.133Z,9.10
2022-10-31T09:42:44.494Z,6.67
2022-10-31T09:45:51.400Z,6.83
2022-10-31T09:48:28.103Z,7.90
2022-10-31T09:51:17.049Z,8.70
2022-10-31T09:54:13.895Z,9.17
2022-10-31T09:56:41.662Z,11.53
2022-10-31T09:59:20.550Z,8.87
2022-10-31T10:02:22.153Z,7.27
2022-10-31T10:05:06.120Z,12.93
2022-10-31T10:08:08.812Z,7.17
2022-10-31T10:10:50.668Z,4.80
2022-10-31T10:13:30.957Z,5.57
2022-10-31T10:16:21.380Z,8.63
2022-10-31T10:19:13.607Z,7.93
2022-10-31T10:22:06.480Z,11.30
2022-10-31T10:25:05.817Z,5.30
2022-10-31T10:27:54.620Z,13.03
2022-10-31T10:30:46.245Z,7.83
2022-10-31T10:36:25.086Z,7.90
2022-10-31T10:38:57.516Z,6.67
2022-10-31T10:41:34.996Z,13.83
2022-10-31T10:44:07.520Z,6.00
2022-10-31T10:47:12.440Z,16.00
2022-10-31T10:50:07.899Z,6.90
2022-10-31T10:53:22.468Z,8.10
2022-10-31T10:56:01.710Z,15.27
2022-10-31T10:58:30.784Z,13.70
2022-10-31T11:01:01.083Z,6.60
2022-10-31T11:03:30.606Z,8.87
2022-10-31T11:05:59.920Z,7.10
2022-10-31T11:08:31.007Z,5.93
2022-10-31T11:11:19.079Z,8.03
2022-10-31T11:13:50.007Z,4.87
2022-10-31T11:16:41.547Z,8.00
2022-10-31T11:19:14.416Z,7.67
2022-10-31T11:21:53.689Z,9.47
2022-10-31T11:24:29.001Z,7.23
2022-10-31T11:27:30.872Z,10.83
2022-10-31T11:30:09.443Z,8.57
2022-10-31T11:32:54.968Z,7.50
2022-10-31T11:35:24.786Z,9.73
2022-10-31T11:37:56.850Z,10.60
2022-10-31T11:40:29.775Z,10.20
2022-10-31T11:43:03.687Z,6.53
2022-10-31T11:48:26.629Z,9.43
2022-10-31T11:50:59.886Z,8.43
2022-10-31T11:53:43.962Z,6.83
2022-10-31T11:56:20.022Z,15.53
2022-10-31T11:59:05.171Z,8.07
2022-10-31T12:01:44.184Z,8.53
2022-10-31T12:04:15.228Z,6.90
2022-10-31T12:06:47.968Z,12.73
2022-10-31T12:09:23.490Z,9.23
2022-10-31T12:12:34.810Z,7.00
2022-10-31T12:15:34.693Z,8.43
2022-10-31T12:18:38.390Z,9.33
2022-10-31T12:21:30.795Z,7.00
2022-10-31T12:24:09.223Z,12.30
2022-10-31T12:26:54.816Z,6.13
2022-10-31T12:29:41.463Z,9.00
2022-10-31T12:33:02.002Z,8.67
2022-10-31T12:36:02.056Z,16.70
2022-10-31T12:38:57.492Z,7.37
2022-10-31T12:41:55.490Z,6.80
2022-10-31T12:44:29.754Z,12.20
2022-10-31T12:50:40.923Z,8.60
2022-10-31T12:56:31.339Z,13.60
2022-10-31T12:59:28.411Z,8.63
2022-10-31T13:02:16.917Z,9.87
2022-10-31T13:05:07.075Z,13.50
2022-10-31T13:07:50.231Z,7.47
2022-10-31T13:10:33.296Z,9.70
2022-10-31T13:13:21.108Z,12.30
2022-10-31T13:16:02.998Z,8.63
2022-10-31T13:18:57.002Z,6.60
2022-10-31T13:21:33.256Z,8.73
2022-10-31T13:26:47.151Z,5.70
2022-10-31T13:29:44.761Z,7.93
2022-10-31T13:32:12.804Z,10.00
2022-10-31T13:34:51.920Z,8.20
2022-10-31T13:37:37.043Z,8.97
2022-10-31T13:40:17.021Z,7.17
2022-10-31T13:43:16.340Z,8.60
2022-10-31T13:45:53.381Z,7.63
2022-10-31T13:48:42.605Z,9.27
2022-10-31T13:51:14.292Z,7.50
2022-10-31T13:54:01.382Z,6.83
2022-10-31T13:56:34.902Z,8.67
2022-10-31T13:59:12.499Z,9.33
2022-10-31T14:01:50.662Z,11.13
2022-10-31T14:04:27.997Z,11.23
2022-10-31T14:07:11.211Z,9.80
2022-10-31T14:09:40.733Z,8.70
2022-10-31T14:12:19.821Z,8.00
2022-10-31T14:14:53.406Z,12.80
2022-10-31T14:17:24.367Z,8.03
2022-10-31T14:20:26.319Z,8.93
2022-10-31T14:22:53.318Z,7.97
2022-10-31T14:25:46.918Z,5.90
2022-10-31T14:28:32.494Z,11.50
2022-10-31T14:31:00.902Z,5.53
2022-10-31T14:33:34.657Z,11.20
2022-10-31T14:36:19.975Z,8.33
2022-10-31T14:39:06.917Z,7.17
2022-10-31T14:41:51.571Z,9.67
2022-10-31T14:44:55.938Z,8.20
2022-10-31T14:47:43.730Z,8.70
2022-10-31T14:50:47.939Z,12.80
2022-10-31T14:53:27.749Z,10.77
2022-10-31T14:55:58.692Z,8.43
2022-10-31T14:58:39.409Z,9.43
2022-10-31T15:01:08.174Z,6.33
2022-10-31T15:03:44.427Z,13.93
2022-10-31T15:06:22.680Z,6.90
2022-10-31T15:08:53.818Z,6.53
2022-10-31T15:11:27.262Z,8.73
2022-10-31T15:14:00.123Z,13.87
2022-10-31T15:16:37.941Z,8.40
2022-10-31T15:19:12.360Z,15.57
2022-10-31T15:21:46.525Z,13.83
2022-10-31T15:24:17.545Z,10.23
2022-10-31T15:26:51.123Z,7.97
2022-10-31T15:29:26.664Z,13.63
2022-10-31T15:32:29.389Z,12.77
2022-10-31T15:35:00.383Z,9.53
2022-10-31T15:37:28.386Z,12.80
2022-10-31T15:39:56.327Z,10.47
2022-10-31T15:42:30.632Z,9.10
2022-10-31T15:45:08.030Z,11.37
2022-10-31T15:47:38.442Z,14.97
2022-10-31T15:50:20.873Z,12.93
2022-10-31T15:52:49.847Z,10.60
2022-10-31T15:55:25.942Z,9.87
2022-10-31T15:57:55.472Z,16.00
2022-10-31T16:00:36.082Z,12.23
2022-10-31T16:03:07.845Z,16.27
2022-10-31T16:05:50.787Z,12.23
2022-10-31T16:08:35.336Z,25.07
2022-10-31T16:11:17.493Z,13.30
2022-10-31T16:14:25.897Z,13.20
2022-10-31T16:17:09.451Z,12.40
2022-10-31T16:20:05.328Z,21.47
2022-10-31T16:25:48.347Z,17.77
2022-10-31T16:28:48.729Z,19.37
2022-10-31T16:31:23.394Z,11.97
2022-10-31T16:33:52.821Z,20.13
2022-10-31T16:36:35.925Z,14.13
2022-10-31T16:39:05.278Z,18.97
2022-10-31T16:41:43.390Z,13.10
2022-10-31T16:44:27.625Z,13.77
2022-10-31T16:47:18.511Z,19.47
2022-10-31T16:49:51.189Z,19.07
2022-10-31T16:52:18.844Z,25.60
2022-10-31T16:54:48.288Z,18.40
2022-10-31T16:57:33.994Z,20.87
2022-10-31T17:00:01.076Z,18.93
2022-10-31T17:02:28.505Z,25.67
2022-10-31T17:04:58.221Z,24.40
2022-10-31T17:07:25.180Z,25.27
2022-10-31T17:09:57.478Z,25.87
2022-10-31T17:12:29.333Z,23.57
2022-10-31T17:14:57.527Z,29.53
2022-10-31T17:17:24.349Z,16.57
2022-10-31T17:19:52.853Z,22.90
2022-10-31T17:22:20.335Z,23.93
2022-10-31T17:24:47.623Z,21.53
2022-10-31T17:27:14.888Z,26.53
2022-10-31T17:29:44.595Z,18.30
2022-10-31T17:32:11.515Z,19.52
2022-10-31T17:34:41.858Z,26.30
2022-10-31T17:37:11.955Z,17.02
2022-10-31T17:39:39.869Z,23.73
2022-10-31T17:42:08.236Z,22.02
2022-10-31T17:44:36.053Z,22.75
2022-10-31T17:47:06.603Z,21.20
2022-10-31T17:49:34.281Z,24.47
2022-10-31T17:52:01.973Z,22.90
2022-10-31T17:54:32.200Z,29.58
2022-10-31T17:56:59.468Z,16.63
2022-10-31T17:59:32.507Z,24.75
2022-10-31T18:02:12.379Z,26.15
2022-10-31T18:04:53.099Z,25.83
2022-10-31T18:07:22.122Z,27.67
2022-10-31T18:09:49.375Z,24.55
2022-10-31T18:12:16.821Z,27.50
2022-10-31T18:14:48.233Z,23.25
2022-10-31T18:20:00.315Z,22.45
2022-10-31T18:22:27.273Z,22.42
2022-10-31T18:25:01.610Z,27.33
2022-10-31T18:27:28.856Z,24.73
2022-10-31T18:29:55.765Z,31.38
2022-10-31T18:32:22.680Z,25.95
2022-10-31T18:34:49.513Z,22.67
2022-10-31T18:37:16.673Z,27.13
2022-10-31T18:39:43.983Z,30.25
2022-10-31T18:42:10.791Z,23.52
2022-10-31T18:44:38.325Z,22.92
2022-10-31T18:47:05.597Z,25.10
2022-10-31T18:49:33.686Z,28.15
2022-10-31T18:52:00.822Z,29.98
2022-10-31T18:54:29.109Z,29.45
2022-10-31T18:56:56.057Z,28.27
2022-10-31T18:59:25.845Z,22.65
2022-10-31T19:01:53.585Z,31.08
2022-10-31T19:04:23.593Z,28.40
2022-10-31T19:06:52.362Z,28.95
2022-10-31T19:09:20.641Z,27.63
2022-10-31T19:11:51.126Z,29.45
2022-10-31T19:14:18.001Z,31.88
2022-10-31T19:16:44.846Z,30.45
2022-10-31T19:19:13.394Z,27.63
2022-10-31T19:21:40.180Z,31.58
2022-10-31T19:24:11.591Z,31.60
2022-10-31T19:26:39.165Z,28.38
2022-10-31T19:29:10.578Z,26.15
2022-10-31T19:48:42.010Z,26.05
2022-10-31T19:51:14.568Z,26.13
2022-10-31T19:53:43.021Z,26.77
2022-10-31T19:56:24.582Z,32.55
2022-10-31T19:58:56.879Z,31.48
2022-10-31T20:01:24.853Z,31.20
2022-10-31T20:03:52.146Z,34.15
2022-10-31T20:06:37.372Z,30.58
2022-10-31T20:11:39.549Z,32.70
2022-10-31T20:14:08.109Z,32.90
2022-10-31T20:16:38.979Z,45.40
2022-10-31T20:19:10.969Z,42.42
2022-10-31T20:21:50.637Z,30.42
2022-10-31T20:24:17.996Z,29.05
2022-10-31T20:26:47.696Z,34.78
2022-10-31T20:29:19.923Z,37.97
2022-10-31T20:31:47.803Z,35.00
2022-10-31T20:34:15.675Z,39.45
2022-10-31T20:36:44.337Z,38.90
2022-10-31T20:39:11.303Z,41.70
2022-10-31T20:41:40.930Z,41.65
2022-10-31T20:44:08.325Z,36.10
2022-10-31T20:46:36.554Z,46.75
2022-10-31T20:49:05.394Z,39.45
2022-10-31T20:51:32.329Z,40.30
2022-10-31T20:54:00.620Z,37.17
2022-10-31T20:56:28.703Z,40.70
2022-10-31T20:58:56.746Z,35.20
2022-10-31T21:01:31.533Z,36.55
2022-10-31T21:03:59.398Z,44.67
2022-10-31T21:06:33.555Z,41.33
2022-10-31T21:09:06.685Z,42.05
2022-10-31T21:11:38.846Z,40.17
2022-10-31T21:14:15.677Z,45.65
2022-10-31T21:16:42.936Z,44.80
2022-10-31T21:19:10.499Z,46.53
2022-10-31T21:21:38.593Z,44.80
2022-10-31T21:24:07.941Z,52.08
2022-10-31T21:26:38.103Z,60.97
2022-10-31T21:29:06.591Z,46.97
2022-10-31T21:31:34.932Z,44.28
2022-10-31T21:34:01.883Z,47.28
2022-10-31T21:36:28.714Z,44.10
2022-10-31T21:38:56.630Z,56.05
2022-10-31T21:41:25.193Z,47.83
2022-10-31T21:43:56.588Z,44.90
2022-10-31T21:46:32.184Z,43.97
2022-10-31T21:49:02.409Z,45.67
2022-10-31T21:51:44.759Z,46.90
2022-10-31T21:54:36.438Z,53.50
2022-10-31T21:57:04.133Z,50.03
2022-10-31T21:59:30.975Z,50.92
2022-10-31T22:01:59.861Z,51.92
2022-10-31T22:04:27.506Z,50.35
2022-10-31T22:06:55.817Z,45.42
2022-10-31T22:09:23.557Z,54.45
2022-10-31T22:11:51.171Z,58.70
2022-10-31T22:14:17.990Z,50.03
2022-10-31T22:16:44.825Z,50.33
2022-10-31T22:19:13.973Z,47.03
2022-10-31T22:26:58.149Z,48.00
2022-10-31T22:32:07.587Z,52.08
2022-10-31T22:34:34.823Z,53.67
2022-10-31T22:37:02.182Z,45.80
2022-10-31T22:55:39.412Z,44.88
2022-10-31T22:58:06.583Z,48.17
2022-10-31T23:00:33.383Z,50.80
2022-10-31T23:03:00.564Z,55.83
2022-10-31T23:05:34.186Z,40.50
2022-10-31T23:08:01.154Z,44.95
2022-10-31T23:10:33.790Z,48.15
2022-10-31T23:13:22.103Z,43.20
2022-10-31T23:15:49.296Z,47.97
2022-10-31T23:18:36.595Z,49.63
2022-10-31T23:21:05.496Z,47.92
2022-10-31T23:23:37.619Z,51.20
2022-10-31T23:26:24.089Z,49.60
2022-10-31T23:28:50.827Z,52.67
2022-10-31T23:31:18.711Z,64.18
2022-10-31T23:33:45.496Z,48.55
2022-10-31T23:36:12.792Z,48.85
2022-10-31T23:38:39.610Z,53.05
2022-10-31T23:41:06.735Z,53.22
2022-10-31T23:43:33.608Z,50.30
2022-10-31T23:46:00.759Z,52.90
2022-10-31T23:48:29.907Z,57.85
2022-10-31T23:50:57.041Z,51.15
2022-10-31T23:53:27.278Z,51.63
2022-10-31T23:55:57.520Z,46.25
2022-10-31T23:58:27.029Z,57.83
